createdAt,value
2023-01-18T00:00:21.780Z,8.04
2023-01-18T00:02:49.273Z,8.06
2023-01-18T00:05:16.234Z,8.08
2023-01-18T00:07:43.018Z,8.11
2023-01-18T00:10:10.229Z,8.05
2023-01-18T00:12:36.967Z,8.04
2023-01-18T00:15:04.744Z,8.04
2023-01-18T00:17:31.461Z,7.99
2023-01-18T00:19:58.197Z,8.02
2023-01-18T00:22:24.907Z,8.02
2023-01-18T00:24:51.596Z,8.07
2023-01-18T00:27:18.329Z,8.07
2023-01-18T00:29:45.138Z,8.06
2023-01-18T00:32:14.275Z,8.13
2023-01-18T00:34:41.761Z,8.11
2023-01-18T00:37:08.461Z,8.12
2023-01-18T00:39:35.154Z,8.18
2023-01-18T00:42:20.427Z,8.18
2023-01-18T00:44:47.170Z,8.16
2023-01-18T00:47:13.958Z,8.12
2023-01-18T00:49:40.780Z,8.18
2023-01-18T00:52:07.670Z,8.17
2023-01-18T00:54:34.459Z,8.17
2023-01-18T00:57:01.250Z,8.18
2023-01-18T00:59:28.053Z,8.21
2023-01-18T01:01:56.469Z,8.24
2023-01-18T01:04:42.199Z,8.22
2023-01-18T01:07:09.019Z,8.23
2023-01-18T01:09:35.851Z,8.22
2023-01-18T01:12:21.062Z,8.25
2023-01-18T01:15:06.383Z,8.26
2023-01-18T01:17:53.839Z,8.29
2023-01-18T01:20:39.706Z,8.32
2023-01-18T01:23:33.279Z,8.28
2023-01-18T01:26:03.444Z,8.30
2023-01-18T01:28:30.751Z,8.32
2023-01-18T01:31:01.106Z,8.29
2023-01-18T01:33:28.776Z,8.21
2023-01-18T01:35:59.191Z,8.27
2023-01-18T01:38:25.971Z,8.23
2023-01-18T01:40:58.173Z,8.23
2023-01-18T01:43:56.933Z,8.27
2023-01-18T01:46:49.157Z,8.20
2023-01-18T01:49:43.210Z,8.25
2023-01-18T01:52:15.379Z,8.22
2023-01-18T01:54:46.696Z,8.20
2023-01-18T01:58:07.709Z,8.22
2023-01-18T02:00:37.127Z,8.18
2023-01-18T02:03:08.686Z,8.17
2023-01-18T02:05:43.670Z,8.16
2023-01-18T02:08:14.062Z,8.16
2023-01-18T02:10:43.717Z,8.10
2023-01-18T02:13:13.707Z,8.17
2023-01-18T02:16:14.721Z,8.15
2023-01-18T02:19:00.705Z,8.21
2023-01-18T02:21:35.719Z,8.21
2023-01-18T02:24:46.359Z,8.26
2023-01-18T02:27:28.723Z,8.26
2023-01-18T02:30:29.714Z,8.26
2023-01-18T02:33:04.577Z,8.27
2023-01-18T02:35:49.714Z,8.25
2023-01-18T02:38:27.673Z,8.30
2023-01-18T02:48:34.354Z,8.36
2023-01-18T02:51:01.065Z,8.35
2023-01-18T02:53:27.860Z,8.34
2023-01-18T02:56:01.664Z,8.32
2023-01-18T02:58:32.338Z,8.29
2023-01-18T03:01:17.353Z,8.26
2023-01-18T03:03:44.721Z,8.33
2023-01-18T03:06:11.434Z,8.31
2023-01-18T03:08:44.366Z,8.38
2023-01-18T03:11:35.452Z,8.37
2023-01-18T03:14:35.318Z,8.40
2023-01-18T03:17:11.113Z,8.39
2023-01-18T03:20:05.470Z,8.38
2023-01-18T03:22:55.509Z,8.41
2023-01-18T03:25:29.361Z,8.46
2023-01-18T03:28:15.986Z,8.43
2023-01-18T03:31:01.545Z,8.47
2023-01-18T03:33:43.801Z,8.52
2023-01-18T03:36:25.744Z,8.53
2023-01-18T03:38:58.824Z,8.62
2023-01-18T03:41:27.639Z,8.64
2023-01-18T03:43:55.248Z,8.66
2023-01-18T03:46:22.464Z,8.64
2023-01-18T03:48:49.333Z,8.63
2023-01-18T03:51:47.476Z,8.64
2023-01-18T03:54:26.894Z,8.68
2023-01-18T03:57:08.798Z,8.68
2023-01-18T03:59:36.837Z,8.72
2023-01-18T04:02:04.881Z,8.73
2023-01-18T04:04:31.651Z,8.72
2023-01-18T04:06:58.382Z,8.70
2023-01-18T04:09:25.980Z,8.72
2023-01-18T04:11:53.182Z,8.73
2023-01-18T04:14:20.179Z,8.69
2023-01-18T04:16:46.961Z,8.70
2023-01-18T04:19:13.772Z,8.68
2023-01-18T04:21:40.487Z,8.68
2023-01-18T04:24:07.882Z,8.67
2023-01-18T04:26:34.586Z,8.65
2023-01-18T04:29:01.536Z,8.68
2023-01-18T04:31:28.422Z,8.64
2023-01-18T04:33:55.188Z,8.64
2023-01-18T04:36:22.497Z,8.62
2023-01-18T04:38:54.138Z,8.70
2023-01-18T04:41:21.354Z,8.72
2023-01-18T04:43:48.034Z,8.71
2023-01-18T04:46:15.530Z,8.71
2023-01-18T04:48:42.855Z,8.68
2023-01-18T04:51:13.920Z,8.70
2023-01-18T04:53:42.000Z,8.70
2023-01-18T04:56:08.788Z,8.67
2023-01-18T04:58:35.494Z,8.67
2023-01-18T05:01:03.685Z,8.74
2023-01-18T05:03:30.525Z,8.75
2023-01-18T05:05:57.495Z,8.78
2023-01-18T05:08:24.229Z,8.75
2023-01-18T05:10:51.125Z,8.75
2023-01-18T05:13:17.841Z,8.75
2023-01-18T05:15:44.510Z,8.78
2023-01-18T05:18:11.230Z,8.75
2023-01-18T05:20:38.004Z,8.72
2023-01-18T05:23:10.838Z,8.75
2023-01-18T05:25:39.275Z,8.76
2023-01-18T05:28:07.540Z,8.78
2023-01-18T05:30:38.026Z,8.78
2023-01-18T05:33:04.978Z,8.77
2023-01-18T05:35:32.245Z,8.79
2023-01-18T05:37:58.935Z,8.86
2023-01-18T05:40:25.626Z,8.85
2023-01-18T05:42:52.316Z,8.90
2023-01-18T05:45:20.048Z,8.86
2023-01-18T05:47:46.849Z,8.92
2023-01-18T05:50:13.555Z,8.90
2023-01-18T05:52:40.261Z,8.97
2023-01-18T05:55:07.881Z,8.98
2023-01-18T05:57:34.573Z,8.98
2023-01-18T06:00:03.220Z,9.04
2023-01-18T06:02:38.222Z,9.07
2023-01-18T06:05:05.636Z,9.09
2023-01-18T06:07:32.519Z,9.10
2023-01-18T06:09:59.314Z,9.11
2023-01-18T06:12:26.021Z,9.13
2023-01-18T06:14:52.689Z,9.16
2023-01-18T06:17:19.420Z,9.24
2023-01-18T06:19:48.193Z,9.28
2023-01-18T06:22:16.019Z,9.28
2023-01-18T06:24:42.794Z,9.28
2023-01-18T06:27:09.717Z,9.31
2023-01-18T06:29:36.509Z,9.30
2023-01-18T06:32:03.248Z,9.35
2023-01-18T06:34:30.469Z,9.40
2023-01-18T06:36:57.342Z,9.45
2023-01-18T06:39:24.099Z,9.49
2023-01-18T06:41:50.819Z,9.52
2023-01-18T06:44:17.683Z,9.51
2023-01-18T06:46:44.839Z,9.52
2023-01-18T06:49:12.309Z,9.60
2023-01-18T06:51:39.429Z,9.61
2023-01-18T06:54:06.420Z,9.64
2023-01-18T06:56:33.112Z,9.69
2023-01-18T06:59:01.208Z,9.67
2023-01-18T07:01:28.073Z,9.75
2023-01-18T07:03:55.101Z,9.75
2023-01-18T07:06:21.782Z,9.75
2023-01-18T07:08:49.177Z,9.83
2023-01-18T07:11:15.945Z,9.88
2023-01-18T07:13:43.858Z,9.90
2023-01-18T07:16:18.176Z,9.95
2023-01-18T07:18:46.947Z,9.96
2023-01-18T07:21:15.271Z,9.96
2023-01-18T07:23:42.696Z,10.03
2023-01-18T07:26:17.403Z,10.03
2023-01-18T07:28:44.812Z,10.03
2023-01-18T07:31:11.501Z,10.09
2023-01-18T07:33:38.299Z,10.10
2023-01-18T07:36:06.491Z,10.16
2023-01-18T07:38:33.754Z,10.18
2023-01-18T07:41:10.815Z,10.19
2023-01-18T07:43:37.849Z,10.21
2023-01-18T07:46:05.684Z,10.22
2023-01-18T07:48:32.804Z,10.28
2023-01-18T07:51:04.397Z,10.28
2023-01-18T07:53:32.274Z,10.34
2023-01-18T07:56:02.903Z,10.32
2023-01-18T07:58:29.847Z,10.32
2023-01-18T08:01:02.709Z,10.37
2023-01-18T08:03:29.484Z,10.44
2023-01-18T08:05:58.924Z,10.47
2023-01-18T08:08:27.694Z,10.47
2023-01-18T08:10:58.580Z,10.53
2023-01-18T08:13:25.732Z,10.44
2023-01-18T08:15:52.794Z,10.53
2023-01-18T08:18:19.700Z,10.49
2023-01-18T08:20:47.309Z,10.56
2023-01-18T08:23:14.122Z,10.61
2023-01-18T08:25:41.024Z,10.66
2023-01-18T08:28:07.802Z,10.65
2023-01-18T08:30:39.647Z,10.71
2023-01-18T08:33:06.438Z,10.75
2023-01-18T08:35:35.908Z,10.81
2023-01-18T08:38:02.717Z,10.87
2023-01-18T08:40:29.440Z,10.86
2023-01-18T08:43:00.363Z,10.89
2023-01-18T08:45:27.401Z,10.91
2023-01-18T08:48:02.381Z,10.91
2023-01-18T08:50:32.152Z,10.98
2023-01-18T08:53:00.442Z,11.01
2023-01-18T08:55:29.686Z,11.05
2023-01-18T08:57:57.789Z,11.06
2023-01-18T09:00:27.018Z,11.05
2023-01-18T09:02:54.005Z,11.09
2023-01-18T09:05:21.119Z,11.17
2023-01-18T09:07:48.006Z,11.21
2023-01-18T09:10:15.033Z,11.22
2023-01-18T09:12:41.833Z,11.26
2023-01-18T09:15:08.818Z,11.31
2023-01-18T09:17:35.619Z,11.33
2023-01-18T09:20:03.231Z,11.39
2023-01-18T09:22:29.970Z,11.38
2023-01-18T09:24:57.649Z,11.35
2023-01-18T09:27:24.439Z,11.35
2023-01-18T09:29:52.443Z,11.35
2023-01-18T09:32:20.084Z,11.31
2023-01-18T09:34:50.917Z,11.39
2023-01-18T09:37:19.184Z,11.43
2023-01-18T09:39:51.984Z,11.43
2023-01-18T09:42:21.997Z,11.37
2023-01-18T09:44:53.381Z,11.40
2023-01-18T09:47:22.069Z,11.41
2023-01-18T09:49:59.678Z,11.45
2023-01-18T09:52:32.499Z,11.40
2023-01-18T09:55:17.597Z,11.48
2023-01-18T09:58:01.015Z,11.45
2023-01-18T10:00:29.735Z,11.40
2023-01-18T10:03:04.661Z,11.37
2023-01-18T10:05:33.457Z,11.34
2023-01-18T10:08:15.412Z,11.34
2023-01-18T10:11:02.456Z,11.33
2023-01-18T10:13:38.223Z,11.28
2023-01-18T10:16:10.247Z,11.33
2023-01-18T10:18:45.825Z,11.30
2023-01-18T10:21:18.900Z,11.29
2023-01-18T10:23:48.732Z,11.33
2023-01-18T10:26:20.448Z,11.36
2023-01-18T10:29:16.825Z,11.39
2023-01-18T10:32:03.224Z,11.43
2023-01-18T10:34:32.861Z,11.41
2023-01-18T10:37:18.526Z,11.45
2023-01-18T10:39:51.107Z,11.44
2023-01-18T10:42:22.993Z,11.41
2023-01-18T10:44:49.905Z,11.47
2023-01-18T10:47:17.855Z,11.46
2023-01-18T10:49:45.755Z,11.43
2023-01-18T10:52:29.786Z,11.47
2023-01-18T10:55:01.872Z,11.48
2023-01-18T10:57:37.293Z,11.48
2023-01-18T11:00:12.621Z,11.51
2023-01-18T11:02:39.623Z,11.59
2023-01-18T11:05:07.027Z,11.62
2023-01-18T11:07:34.124Z,11.61
2023-01-18T11:10:06.668Z,11.69
2023-01-18T11:12:41.408Z,11.70
2023-01-18T11:15:14.439Z,11.72
2023-01-18T11:17:42.675Z,11.71
2023-01-18T11:20:21.896Z,11.83
2023-01-18T11:22:56.132Z,11.83
2023-01-18T11:25:22.983Z,11.86
2023-01-18T11:27:49.716Z,11.83
2023-01-18T11:30:23.354Z,11.83
2023-01-18T11:32:51.190Z,11.91
2023-01-18T11:35:23.222Z,11.92
2023-01-18T11:37:50.015Z,11.96
2023-01-18T11:40:20.615Z,11.95
2023-01-18T11:42:48.133Z,11.98
2023-01-18T11:45:16.285Z,11.98
2023-01-18T11:48:14.950Z,12.03
2023-01-18T11:50:45.547Z,12.01
2023-01-18T11:53:36.146Z,12.00
2023-01-18T11:56:33.752Z,12.04
2023-01-18T11:59:02.022Z,12.00
2023-01-18T12:02:06.762Z,12.08
2023-01-18T12:04:33.613Z,12.13
2023-01-18T12:07:45.896Z,12.12
2023-01-18T12:10:21.945Z,12.10
2023-01-18T12:13:27.781Z,12.09
2023-01-18T12:16:01.179Z,12.14
2023-01-18T12:18:42.639Z,12.09
2023-01-18T12:21:32.365Z,12.13
2023-01-18T12:24:18.033Z,12.17
2023-01-18T12:26:50.078Z,12.17
2023-01-18T12:37:02.519Z,12.18
2023-01-18T12:39:53.180Z,12.17
2023-01-18T12:42:26.014Z,12.15
2023-01-18T12:45:04.427Z,12.22
2023-01-18T12:48:07.986Z,12.23
2023-01-18T12:50:36.783Z,12.13
2023-01-18T12:53:10.639Z,12.13
2023-01-18T12:55:37.243Z,12.07
2023-01-18T12:58:04.206Z,12.11
2023-01-18T13:00:39.168Z,12.17
2023-01-18T13:03:16.866Z,12.19
2023-01-18T13:06:00.376Z,12.19
2023-01-18T13:08:36.217Z,12.21
2023-01-18T13:11:17.372Z,12.19
2023-01-18T13:13:45.115Z,12.20
2023-01-18T13:16:18.893Z,12.20
2023-01-18T13:18:51.952Z,12.15
2023-01-18T13:21:28.734Z,12.18
2023-01-18T13:24:00.096Z,12.24
2023-01-18T13:26:30.586Z,12.24
2023-01-18T13:29:10.320Z,12.14
2023-01-18T13:31:37.583Z,12.22
2023-01-18T13:34:04.589Z,12.20
2023-01-18T13:36:45.051Z,12.19
2023-01-18T13:39:14.931Z,12.20
2023-01-18T13:42:04.632Z,12.21
2023-01-18T13:44:45.978Z,12.23
2023-01-18T13:47:39.673Z,12.22
2023-01-18T13:50:25.253Z,12.24
2023-01-18T13:53:13.739Z,12.20
2023-01-18T13:55:40.729Z,12.19
2023-01-18T13:58:30.124Z,12.23
2023-01-18T14:00:59.014Z,12.24
2023-01-18T14:03:27.541Z,12.29
2023-01-18T14:05:54.386Z,12.28
2023-01-18T14:08:23.169Z,12.32
2023-01-18T14:10:53.010Z,12.33
2023-01-18T14:13:45.438Z,12.33
2023-01-18T14:16:16.690Z,12.34
2023-01-18T14:19:00.957Z,12.37
2023-01-18T14:21:31.907Z,12.40
2023-01-18T14:24:37.343Z,12.36
2023-01-18T14:27:04.902Z,12.39
2023-01-18T14:29:47.858Z,12.38
2023-01-18T14:32:21.764Z,12.35
2023-01-18T14:35:23.964Z,12.40
2023-01-18T14:37:53.349Z,12.38
2023-01-18T14:40:22.947Z,12.40
2023-01-18T14:42:57.031Z,12.42
2023-01-18T14:45:29.134Z,12.42
2023-01-18T14:48:17.469Z,12.42
2023-01-18T14:50:46.119Z,12.37
2023-01-18T14:53:16.750Z,12.39
2023-01-18T14:55:43.696Z,12.36
2023-01-18T14:58:17.674Z,12.37
2023-01-18T15:00:47.819Z,12.31
2023-01-18T15:03:27.565Z,12.29
2023-01-18T15:06:12.489Z,12.29
2023-01-18T15:08:40.038Z,12.26
2023-01-18T15:11:07.115Z,12.29
2023-01-18T15:13:38.127Z,12.28
2023-01-18T15:16:05.147Z,12.34
2023-01-18T15:18:32.228Z,12.36
2023-01-18T15:21:00.811Z,12.33
2023-01-18T15:23:27.578Z,12.34
2023-01-18T15:25:54.562Z,12.36
2023-01-18T15:28:24.269Z,12.33
2023-01-18T15:38:27.036Z,12.44
2023-01-18T15:41:05.845Z,12.45
2023-01-18T15:43:42.605Z,12.43
2023-01-18T15:46:12.154Z,12.38
2023-01-18T15:48:59.220Z,12.40
2023-01-18T15:51:45.042Z,12.39
2023-01-18T15:54:19.432Z,12.46
2023-01-18T15:56:46.145Z,12.45
2023-01-18T15:59:17.120Z,12.45
2023-01-18T16:01:46.477Z,12.44
2023-01-18T16:04:13.691Z,12.38
2023-01-18T16:06:40.408Z,12.39
2023-01-18T16:09:12.479Z,12.45
2023-01-18T16:11:47.665Z,12.43
2023-01-18T16:14:27.913Z,12.45
2023-01-18T16:16:55.857Z,12.44
2023-01-18T16:19:34.874Z,12.39
2023-01-18T16:22:06.099Z,12.42
2023-01-18T16:25:01.351Z,12.40
2023-01-18T16:27:30.453Z,12.40
2023-01-18T16:30:03.138Z,12.43
2023-01-18T16:32:37.042Z,12.42
2023-01-18T16:35:13.719Z,12.42
2023-01-18T16:37:47.064Z,12.41
2023-01-18T16:40:18.802Z,12.40
2023-01-18T16:43:02.130Z,12.43
2023-01-18T16:45:29.658Z,12.42
2023-01-18T16:47:56.481Z,12.40
2023-01-18T16:50:23.698Z,12.41
2023-01-18T16:52:50.402Z,12.39
2023-01-18T16:55:18.101Z,12.45
2023-01-18T16:57:45.071Z,12.47
2023-01-18T17:00:12.579Z,12.41
2023-01-18T17:02:39.616Z,12.41
2023-01-18T17:05:07.114Z,12.39
2023-01-18T17:07:33.910Z,12.37
2023-01-18T17:10:02.431Z,12.34
2023-01-18T17:12:29.142Z,12.43
2023-01-18T17:14:56.067Z,12.45
2023-01-18T17:17:22.828Z,12.43
2023-01-18T17:19:51.718Z,12.44
2023-01-18T17:22:18.448Z,12.46
2023-01-18T17:24:46.758Z,12.46
2023-01-18T17:27:15.012Z,12.49
2023-01-18T17:29:41.716Z,12.48
2023-01-18T17:32:09.567Z,12.44
2023-01-18T17:34:36.325Z,12.47
2023-01-18T17:37:03.632Z,12.37
2023-01-18T17:39:42.660Z,12.41
2023-01-18T17:42:25.897Z,12.41
2023-01-18T17:45:03.043Z,12.43
2023-01-18T17:47:30.685Z,12.41
2023-01-18T17:49:57.454Z,12.40
2023-01-18T17:52:24.780Z,12.48
2023-01-18T17:54:51.463Z,12.43
2023-01-18T17:57:18.507Z,12.40
2023-01-18T17:59:45.263Z,12.34
2023-01-18T18:02:12.056Z,12.33
2023-01-18T18:04:38.978Z,12.31
2023-01-18T18:07:05.655Z,12.31
2023-01-18T18:09:32.658Z,12.27
2023-01-18T18:11:59.556Z,12.28
2023-01-18T18:14:26.359Z,12.32
2023-01-18T18:16:53.086Z,12.37
2023-01-18T18:19:19.982Z,12.42
2023-01-18T18:21:46.860Z,12.47
2023-01-18T18:24:13.778Z,12.34
2023-01-18T18:26:40.757Z,12.27
2023-01-18T18:29:07.969Z,12.30
2023-01-18T18:31:34.955Z,12.21
2023-01-18T18:34:01.863Z,12.21
2023-01-18T18:36:28.822Z,12.22
2023-01-18T18:38:55.652Z,12.22
2023-01-18T18:41:22.359Z,12.20
2023-01-18T18:43:49.250Z,12.17
2023-01-18T18:46:16.054Z,12.19
2023-01-18T18:48:43.154Z,12.18
2023-01-18T18:51:09.981Z,12.12
2023-01-18T18:53:39.704Z,12.09
2023-01-18T18:56:10.202Z,12.12
2023-01-18T18:58:38.242Z,12.11
2023-01-18T19:01:05.796Z,12.07
2023-01-18T19:03:33.202Z,12.03
2023-01-18T19:06:00.455Z,12.05
2023-01-18T19:08:27.403Z,12.03
2023-01-18T19:10:54.127Z,12.00
2023-01-18T19:13:21.191Z,11.95
2023-01-18T19:15:48.625Z,11.96
2023-01-18T19:18:15.628Z,11.93
2023-01-18T19:20:42.434Z,11.90
2023-01-18T19:23:09.592Z,11.89
2023-01-18T19:25:39.813Z,11.90
2023-01-18T19:28:06.733Z,11.86
2023-01-18T19:30:33.730Z,11.85
2023-01-18T19:33:00.823Z,11.84
2023-01-18T19:35:27.899Z,11.77
2023-01-18T19:37:54.831Z,11.62
2023-01-18T19:40:22.205Z,11.62
2023-01-18T19:42:54.991Z,11.52
2023-01-18T19:45:29.067Z,11.54
2023-01-18T19:47:58.799Z,11.44
2023-01-18T19:50:26.496Z,11.36
2023-01-18T19:52:53.223Z,11.31
2023-01-18T19:55:21.839Z,11.28
2023-01-18T19:57:49.499Z,11.23
2023-01-18T20:00:16.996Z,11.21
2023-01-18T20:02:44.255Z,11.14
2023-01-18T20:05:11.177Z,11.09
2023-01-18T20:07:39.296Z,11.07
2023-01-18T20:10:07.266Z,11.03
2023-01-18T20:12:34.336Z,10.99
2023-01-18T20:15:01.486Z,10.98
2023-01-18T20:17:28.407Z,10.95
2023-01-18T20:19:55.149Z,10.90
2023-01-18T20:22:22.616Z,10.83
2023-01-18T20:24:49.372Z,10.80
2023-01-18T20:27:17.354Z,10.80
2023-01-18T20:29:44.719Z,10.80
2023-01-18T20:32:16.948Z,10.74
2023-01-18T20:34:46.542Z,10.70
2023-01-18T20:37:13.482Z,10.70
2023-01-18T20:39:40.443Z,10.69
2023-01-18T20:42:07.314Z,10.69
2023-01-18T20:44:34.462Z,10.64
2023-01-18T20:47:01.662Z,10.65
2023-01-18T20:49:43.512Z,10.65
2023-01-18T20:52:10.225Z,10.61
2023-01-18T20:54:37.856Z,10.55
2023-01-18T20:57:05.674Z,10.54
2023-01-18T20:59:32.597Z,10.52
2023-01-18T21:01:59.471Z,10.46
2023-01-18T21:04:26.266Z,10.45
2023-01-18T21:06:52.966Z,10.40
2023-01-18T21:09:19.754Z,10.37
2023-01-18T21:11:46.450Z,10.34
2023-01-18T21:14:13.266Z,10.28
2023-01-18T21:16:40.423Z,10.27
2023-01-18T21:19:07.267Z,10.28
2023-01-18T21:21:34.056Z,10.26
2023-01-18T21:24:01.080Z,10.21
2023-01-18T21:26:27.860Z,10.17
2023-01-18T21:28:54.857Z,10.15
2023-01-18T21:31:21.845Z,10.12
2023-01-18T21:33:49.175Z,10.09
2023-01-18T21:36:20.317Z,10.03
2023-01-18T21:38:47.087Z,9.98
2023-01-18T21:41:52.403Z,9.95
2023-01-18T21:44:37.681Z,9.88
2023-01-18T21:47:04.505Z,9.85
2023-01-18T21:52:56.130Z,9.72
2023-01-18T21:55:23.125Z,9.70
2023-01-18T21:58:09.884Z,9.67
2023-01-18T22:00:40.531Z,9.62
2023-01-18T22:03:07.390Z,9.56
2023-01-18T22:05:34.174Z,9.51
2023-01-18T22:08:01.187Z,9.53
2023-01-18T22:10:28.192Z,9.53
2023-01-18T22:12:54.963Z,9.51
2023-01-18T22:15:23.111Z,9.46
2023-01-18T22:17:49.817Z,9.41
2023-01-18T22:20:16.882Z,9.45
2023-01-18T22:22:43.588Z,9.45
2023-01-18T22:25:10.387Z,9.43
2023-01-18T22:27:37.186Z,9.44
2023-01-18T22:30:04.806Z,9.42
2023-01-18T22:32:31.505Z,9.41
2023-01-18T22:34:58.279Z,9.39
2023-01-18T22:37:26.027Z,9.36
2023-01-18T22:39:52.877Z,9.32
2023-01-18T22:42:19.560Z,9.32
2023-01-18T22:44:46.225Z,9.27
2023-01-18T22:47:12.906Z,9.21
2023-01-18T22:49:39.615Z,9.21
2023-01-18T22:52:06.806Z,9.20
2023-01-18T22:54:33.506Z,9.21
2023-01-18T22:57:00.205Z,9.20
2023-01-18T22:59:26.909Z,9.16
2023-01-18T23:01:53.603Z,9.12
2023-01-18T23:04:20.610Z,9.07
2023-01-18T23:06:48.182Z,9.07
2023-01-18T23:09:15.844Z,9.12
2023-01-18T23:11:42.656Z,9.10
2023-01-18T23:14:28.174Z,9.08
2023-01-18T23:17:13.643Z,9.05
2023-01-18T23:19:40.336Z,9.08
2023-01-18T23:22:07.417Z,9.10
2023-01-18T23:24:36.002Z,9.08
2023-01-18T23:27:04.051Z,9.04
2023-01-18T23:29:30.805Z,8.98
2023-01-18T23:31:58.450Z,8.94
2023-01-18T23:34:25.732Z,8.90
2023-01-18T23:36:53.060Z,8.86
2023-01-18T23:39:38.595Z,8.85
2023-01-18T23:42:24.264Z,8.83
2023-01-18T23:45:10.370Z,8.80
2023-01-18T23:47:55.875Z,8.81
2023-01-18T23:50:41.472Z,8.81
2023-01-18T23:53:30.766Z,8.79
2023-01-18T23:55:57.972Z,8.77
2023-01-18T23:58:24.889Z,8.77
